sensor_id;sensor_type;location;lat;lon;timestamp;P1;durP1;ratioP1;P2;durP2;ratioP2
63902;SDS011;50072;50.678;13.938;2022-12-05T00:03:51;22.55;;;12.32;;
63902;SDS011;50072;50.678;13.938;2022-12-05T00:06:18;23.45;;;12.20;;
63902;SDS011;50072;50.678;13.938;2022-12-05T00:08:44;30.60;;;14.07;;
63902;SDS011;50072;50.678;13.938;2022-12-05T00:11:15;26.77;;;13.35;;
63902;SDS011;50072;50.678;13.938;2022-12-05T00:13:43;24.58;;;12.82;;
63902;SDS011;50072;50.678;13.938;2022-12-05T00:16:11;24.83;;;12.75;;
63902;SDS011;50072;50.678;13.938;2022-12-05T00:18:39;26.38;;;13.60;;
63902;SDS011;50072;50.678;13.938;2022-12-05T00:21:05;29.20;;;14.77;;
63902;SDS011;50072;50.678;13.938;2022-12-05T00:23:32;25.77;;;12.88;;
63902;SDS011;50072;50.678;13.938;2022-12-05T00:26:02;27.25;;;14.02;;
63902;SDS011;50072;50.678;13.938;2022-12-05T00:28:29;24.98;;;12.07;;
63902;SDS011;50072;50.678;13.938;2022-12-05T00:30:56;25.58;;;13.45;;
63902;SDS011;50072;50.678;13.938;2022-12-05T00:33:22;23.70;;;12.90;;
63902;SDS011;50072;50.678;13.938;2022-12-05T00:35:48;29.05;;;13.95;;
63902;SDS011;50072;50.678;13.938;2022-12-05T00:38:14;26.08;;;13.68;;
63902;SDS011;50072;50.678;13.938;2022-12-05T00:40:40;26.55;;;13.52;;
63902;SDS011;50072;50.678;13.938;2022-12-05T00:43:06;28.27;;;14.20;;
63902;SDS011;50072;50.678;13.938;2022-12-05T00:45:32;28.27;;;14.02;;
63902;SDS011;50072;50.678;13.938;2022-12-05T00:47:58;27.60;;;13.93;;
63902;SDS011;50072;50.678;13.938;2022-12-05T00:50:24;27.42;;;13.32;;
63902;SDS011;50072;50.678;13.938;2022-12-05T00:52:50;22.05;;;12.13;;
63902;SDS011;50072;50.678;13.938;2022-12-05T00:55:16;27.42;;;13.23;;
63902;SDS011;50072;50.678;13.938;2022-12-05T00:57:41;25.83;;;12.60;;
63902;SDS011;50072;50.678;13.938;2022-12-05T01:00:07;27.52;;;14.43;;
63902;SDS011;50072;50.678;13.938;2022-12-05T01:02:33;31.10;;;14.55;;
63902;SDS011;50072;50.678;13.938;2022-12-05T01:04:59;28.67;;;14.23;;
63902;SDS011;50072;50.678;13.938;2022-12-05T01:07:25;26.13;;;12.95;;
63902;SDS011;50072;50.678;13.938;2022-12-05T01:09:51;25.13;;;13.23;;
63902;SDS011;50072;50.678;13.938;2022-12-05T01:12:16;27.58;;;13.85;;
63902;SDS011;50072;50.678;13.938;2022-12-05T01:14:42;25.02;;;12.70;;
63902;SDS011;50072;50.678;13.938;2022-12-05T01:17:08;25.05;;;12.82;;
63902;SDS011;50072;50.678;13.938;2022-12-05T01:19:34;26.20;;;13.23;;
63902;SDS011;50072;50.678;13.938;2022-12-05T01:22:00;25.02;;;12.98;;
63902;SDS011;50072;50.678;13.938;2022-12-05T01:24:26;28.48;;;13.07;;
63902;SDS011;50072;50.678;13.938;2022-12-05T01:26:54;27.73;;;13.35;;
63902;SDS011;50072;50.678;13.938;2022-12-05T01:29:21;26.08;;;12.00;;
63902;SDS011;50072;50.678;13.938;2022-12-05T01:31:48;26.80;;;13.20;;
63902;SDS011;50072;50.678;13.938;2022-12-05T01:34:15;26.88;;;13.35;;
63902;SDS011;50072;50.678;13.938;2022-12-05T01:36:42;28.13;;;13.18;;
63902;SDS011;50072;50.678;13.938;2022-12-05T01:39:09;24.63;;;12.82;;
63902;SDS011;50072;50.678;13.938;2022-12-05T01:41:37;28.75;;;13.85;;
63902;SDS011;50072;50.678;13.938;2022-12-05T01:46:38;26.48;;;13.60;;
63902;SDS011;50072;50.678;13.938;2022-12-05T01:49:13;26.85;;;13.50;;
63902;SDS011;50072;50.678;13.938;2022-12-05T01:51:45;26.67;;;13.32;;
63902;SDS011;50072;50.678;13.938;2022-12-05T01:54:13;29.73;;;14.75;;
63902;SDS011;50072;50.678;13.938;2022-12-05T01:56:41;24.88;;;13.80;;
63902;SDS011;50072;50.678;13.938;2022-12-05T01:59:11;25.05;;;13.55;;
63902;SDS011;50072;50.678;13.938;2022-12-05T02:01:37;26.98;;;13.75;;
63902;SDS011;50072;50.678;13.938;2022-12-05T02:04:04;27.98;;;13.80;;
63902;SDS011;50072;50.678;13.938;2022-12-05T02:06:31;27.30;;;13.73;;
63902;SDS011;50072;50.678;13.938;2022-12-05T02:08:57;27.85;;;13.10;;
63902;SDS011;50072;50.678;13.938;2022-12-05T02:11:23;27.10;;;13.55;;
63902;SDS011;50072;50.678;13.938;2022-12-05T02:19:50;25.85;;;12.88;;
63902;SDS011;50072;50.678;13.938;2022-12-05T02:25:10;25.50;;;12.82;;
63902;SDS011;50072;50.678;13.938;2022-12-05T02:28:13;25.45;;;13.02;;
63902;SDS011;50072;50.678;13.938;2022-12-05T02:30:56;27.77;;;13.40;;
63902;SDS011;50072;50.678;13.938;2022-12-05T02:33:47;26.85;;;13.15;;
63902;SDS011;50072;50.678;13.938;2022-12-05T02:41:50;25.13;;;12.90;;
63902;SDS011;50072;50.678;13.938;2022-12-05T02:44:28;24.70;;;12.63;;
63902;SDS011;50072;50.678;13.938;2022-12-05T02:47:00;26.70;;;13.05;;
63902;SDS011;50072;50.678;13.938;2022-12-05T02:49:32;24.67;;;12.63;;
63902;SDS011;50072;50.678;13.938;2022-12-05T02:52:01;27.00;;;13.45;;
63902;SDS011;50072;50.678;13.938;2022-12-05T02:54:31;24.48;;;13.30;;
63902;SDS011;50072;50.678;13.938;2022-12-05T02:57:00;25.65;;;13.40;;
63902;SDS011;50072;50.678;13.938;2022-12-05T02:59:27;27.33;;;12.88;;
63902;SDS011;50072;50.678;13.938;2022-12-05T03:01:53;26.58;;;13.45;;
63902;SDS011;50072;50.678;13.938;2022-12-05T03:04:20;23.58;;;13.05;;
63902;SDS011;50072;50.678;13.938;2022-12-05T03:06:58;24.45;;;12.13;;
63902;SDS011;50072;50.678;13.938;2022-12-05T03:09:33;25.98;;;12.90;;
63902;SDS011;50072;50.678;13.938;2022-12-05T03:12:46;21.77;;;12.80;;
63902;SDS011;50072;50.678;13.938;2022-12-05T03:14:58;25.00;;;12.85;;
63902;SDS011;50072;50.678;13.938;2022-12-05T03:17:36;25.00;;;12.50;;
63902;SDS011;50072;50.678;13.938;2022-12-05T03:23:04;22.58;;;12.40;;
63902;SDS011;50072;50.678;13.938;2022-12-05T03:25:59;25.48;;;13.02;;
63902;SDS011;50072;50.678;13.938;2022-12-05T03:28:38;23.98;;;12.50;;
63902;SDS011;50072;50.678;13.938;2022-12-05T03:31:19;25.00;;;12.35;;
63902;SDS011;50072;50.678;13.938;2022-12-05T03:33:55;24.73;;;12.98;;
63902;SDS011;50072;50.678;13.938;2022-12-05T03:36:28;24.33;;;12.80;;
63902;SDS011;50072;50.678;13.938;2022-12-05T03:39:04;23.85;;;12.88;;
63902;SDS011;50072;50.678;13.938;2022-12-05T03:41:53;23.98;;;12.77;;
63902;SDS011;50072;50.678;13.938;2022-12-05T03:47:04;25.90;;;13.20;;
63902;SDS011;50072;50.678;13.938;2022-12-05T03:49:41;26.27;;;13.35;;
63902;SDS011;50072;50.678;13.938;2022-12-05T03:52:19;26.70;;;14.07;;
63902;SDS011;50072;50.678;13.938;2022-12-05T03:57:22;27.05;;;12.80;;
63902;SDS011;50072;50.678;13.938;2022-12-05T04:00:00;25.33;;;12.98;;
63902;SDS011;50072;50.678;13.938;2022-12-05T04:02:48;27.77;;;13.68;;
63902;SDS011;50072;50.678;13.938;2022-12-05T04:05:20;24.00;;;12.75;;
63902;SDS011;50072;50.678;13.938;2022-12-05T04:07:48;26.08;;;13.20;;
63902;SDS011;50072;50.678;13.938;2022-12-05T04:10:21;25.85;;;12.88;;
63902;SDS011;50072;50.678;13.938;2022-12-05T04:12:51;27.50;;;12.88;;
63902;SDS011;50072;50.678;13.938;2022-12-05T04:15:21;22.95;;;12.48;;
63902;SDS011;50072;50.678;13.938;2022-12-05T04:17:52;28.23;;;13.20;;
63902;SDS011;50072;50.678;13.938;2022-12-05T04:20:32;24.43;;;13.23;;
63902;SDS011;50072;50.678;13.938;2022-12-05T04:23:22;25.08;;;12.98;;
63902;SDS011;50072;50.678;13.938;2022-12-05T04:26:01;30.25;;;13.80;;
63902;SDS011;50072;50.678;13.938;2022-12-05T04:28:47;24.88;;;12.77;;
63902;SDS011;50072;50.678;13.938;2022-12-05T04:31:38;25.75;;;13.18;;
63902;SDS011;50072;50.678;13.938;2022-12-05T04:34:07;25.80;;;13.07;;
63902;SDS011;50072;50.678;13.938;2022-12-05T04:36:46;26.88;;;13.52;;
63902;SDS011;50072;50.678;13.938;2022-12-05T04:39:33;27.20;;;13.27;;
63902;SDS011;50072;50.678;13.938;2022-12-05T04:42:01;24.35;;;13.43;;
63902;SDS011;50072;50.678;13.938;2022-12-05T04:44:36;23.95;;;12.38;;
63902;SDS011;50072;50.678;13.938;2022-12-05T04:47:06;23.75;;;12.32;;
63902;SDS011;50072;50.678;13.938;2022-12-05T04:49:35;24.90;;;12.57;;
63902;SDS011;50072;50.678;13.938;2022-12-05T04:52:03;25.23;;;13.45;;
63902;SDS011;50072;50.678;13.938;2022-12-05T05:00:33;27.25;;;14.73;;
63902;SDS011;50072;50.678;13.938;2022-12-05T05:03:47;27.75;;;14.45;;
63902;SDS011;50072;50.678;13.938;2022-12-05T05:05:55;26.25;;;14.15;;
63902;SDS011;50072;50.678;13.938;2022-12-05T05:08:24;29.98;;;14.80;;
63902;SDS011;50072;50.678;13.938;2022-12-05T05:11:03;29.48;;;14.45;;
63902;SDS011;50072;50.678;13.938;2022-12-05T05:13:31;29.58;;;14.20;;
63902;SDS011;50072;50.678;13.938;2022-12-05T05:15:57;28.35;;;15.10;;
63902;SDS011;50072;50.678;13.938;2022-12-05T05:18:23;29.17;;;14.65;;
63902;SDS011;50072;50.678;13.938;2022-12-05T05:20:49;30.55;;;15.93;;
63902;SDS011;50072;50.678;13.938;2022-12-05T05:23:15;25.02;;;13.90;;
63902;SDS011;50072;50.678;13.938;2022-12-05T05:25:41;30.52;;;15.45;;
63902;SDS011;50072;50.678;13.938;2022-12-05T05:28:08;30.17;;;15.43;;
63902;SDS011;50072;50.678;13.938;2022-12-05T05:30:34;29.52;;;14.75;;
63902;SDS011;50072;50.678;13.938;2022-12-05T05:33:00;32.17;;;16.00;;
63902;SDS011;50072;50.678;13.938;2022-12-05T05:35:26;28.77;;;14.65;;
63902;SDS011;50072;50.678;13.938;2022-12-05T05:37:52;30.00;;;15.32;;
63902;SDS011;50072;50.678;13.938;2022-12-05T05:40:18;30.88;;;16.45;;
63902;SDS011;50072;50.678;13.938;2022-12-05T05:42:45;30.05;;;16.60;;
63902;SDS011;50072;50.678;13.938;2022-12-05T05:45:14;30.13;;;15.82;;
63902;SDS011;50072;50.678;13.938;2022-12-05T05:47:41;32.25;;;16.42;;
63902;SDS011;50072;50.678;13.938;2022-12-05T05:50:07;29.80;;;15.85;;
63902;SDS011;50072;50.678;13.938;2022-12-05T05:52:34;31.83;;;15.82;;
63902;SDS011;50072;50.678;13.938;2022-12-05T05:55:03;32.05;;;16.05;;
63902;SDS011;50072;50.678;13.938;2022-12-05T05:57:34;32.83;;;16.13;;
63902;SDS011;50072;50.678;13.938;2022-12-05T06:00:00;29.00;;;16.25;;
63902;SDS011;50072;50.678;13.938;2022-12-05T06:02:31;28.35;;;14.98;;
63902;SDS011;50072;50.678;13.938;2022-12-05T06:04:59;28.25;;;14.65;;
63902;SDS011;50072;50.678;13.938;2022-12-05T06:07:26;30.77;;;15.90;;
63902;SDS011;50072;50.678;13.938;2022-12-05T06:09:52;27.05;;;14.38;;
63902;SDS011;50072;50.678;13.938;2022-12-05T06:12:18;33.80;;;17.00;;
63902;SDS011;50072;50.678;13.938;2022-12-05T06:14:46;36.80;;;18.38;;
63902;SDS011;50072;50.678;13.938;2022-12-05T06:17:14;47.45;;;21.63;;
63902;SDS011;50072;50.678;13.938;2022-12-05T06:19:41;37.80;;;19.10;;
63902;SDS011;50072;50.678;13.938;2022-12-05T06:22:07;35.25;;;18.15;;
63902;SDS011;50072;50.678;13.938;2022-12-05T06:24:34;37.70;;;19.00;;
63902;SDS011;50072;50.678;13.938;2022-12-05T06:27:01;31.73;;;17.15;;
63902;SDS011;50072;50.678;13.938;2022-12-05T06:29:28;30.05;;;15.98;;
63902;SDS011;50072;50.678;13.938;2022-12-05T06:31:55;37.40;;;19.88;;
63902;SDS011;50072;50.678;13.938;2022-12-05T06:34:21;34.90;;;19.00;;
63902;SDS011;50072;50.678;13.938;2022-12-05T06:36:47;35.33;;;18.48;;
63902;SDS011;50072;50.678;13.938;2022-12-05T06:39:14;37.97;;;17.70;;
63902;SDS011;50072;50.678;13.938;2022-12-05T06:41:40;36.53;;;17.52;;
63902;SDS011;50072;50.678;13.938;2022-12-05T06:44:06;32.13;;;16.85;;
63902;SDS011;50072;50.678;13.938;2022-12-05T06:46:35;33.25;;;17.42;;
63902;SDS011;50072;50.678;13.938;2022-12-05T06:49:00;39.63;;;18.10;;
63902;SDS011;50072;50.678;13.938;2022-12-05T06:51:26;35.05;;;17.65;;
63902;SDS011;50072;50.678;13.938;2022-12-05T06:53:52;35.53;;;17.83;;
63902;SDS011;50072;50.678;13.938;2022-12-05T06:56:20;36.33;;;17.80;;
63902;SDS011;50072;50.678;13.938;2022-12-05T06:58:46;40.80;;;18.58;;
63902;SDS011;50072;50.678;13.938;2022-12-05T07:01:15;34.05;;;17.17;;
63902;SDS011;50072;50.678;13.938;2022-12-05T07:04:01;30.95;;;16.55;;
63902;SDS011;50072;50.678;13.938;2022-12-05T07:06:28;33.33;;;16.40;;
63902;SDS011;50072;50.678;13.938;2022-12-05T07:08:53;31.75;;;16.63;;
63902;SDS011;50072;50.678;13.938;2022-12-05T07:11:19;32.35;;;16.63;;
63902;SDS011;50072;50.678;13.938;2022-12-05T07:13:45;31.20;;;16.52;;
63902;SDS011;50072;50.678;13.938;2022-12-05T07:16:11;31.60;;;16.70;;
63902;SDS011;50072;50.678;13.938;2022-12-05T07:18:36;28.75;;;15.20;;
63902;SDS011;50072;50.678;13.938;2022-12-05T07:21:04;34.65;;;16.58;;
63902;SDS011;50072;50.678;13.938;2022-12-05T07:23:31;30.35;;;15.52;;
63902;SDS011;50072;50.678;13.938;2022-12-05T07:25:57;35.15;;;17.50;;
63902;SDS011;50072;50.678;13.938;2022-12-05T07:28:23;32.97;;;16.83;;
63902;SDS011;50072;50.678;13.938;2022-12-05T07:30:59;34.28;;;17.77;;
63902;SDS011;50072;50.678;13.938;2022-12-05T07:33:29;33.80;;;16.85;;
63902;SDS011;50072;50.678;13.938;2022-12-05T07:35:59;31.17;;;16.13;;
63902;SDS011;50072;50.678;13.938;2022-12-05T07:38:29;32.33;;;16.75;;
63902;SDS011;50072;50.678;13.938;2022-12-05T07:40:55;28.70;;;16.50;;
63902;SDS011;50072;50.678;13.938;2022-12-05T07:43:21;31.48;;;17.33;;
63902;SDS011;50072;50.678;13.938;2022-12-05T07:45:48;30.10;;;16.38;;
63902;SDS011;50072;50.678;13.938;2022-12-05T07:48:14;39.85;;;18.63;;
63902;SDS011;50072;50.678;13.938;2022-12-05T07:50:40;44.33;;;19.52;;
63902;SDS011;50072;50.678;13.938;2022-12-05T07:53:05;40.58;;;19.70;;
63902;SDS011;50072;50.678;13.938;2022-12-05T07:55:31;37.85;;;18.52;;
63902;SDS011;50072;50.678;13.938;2022-12-05T07:57:57;39.17;;;19.50;;
63902;SDS011;50072;50.678;13.938;2022-12-05T08:00:23;42.75;;;19.80;;
63902;SDS011;50072;50.678;13.938;2022-12-05T08:02:49;49.15;;;19.67;;
63902;SDS011;50072;50.678;13.938;2022-12-05T08:05:14;39.30;;;20.48;;
63902;SDS011;50072;50.678;13.938;2022-12-05T08:07:40;41.63;;;21.33;;
63902;SDS011;50072;50.678;13.938;2022-12-05T08:10:07;39.17;;;19.65;;
63902;SDS011;50072;50.678;13.938;2022-12-05T08:12:33;37.03;;;18.83;;
63902;SDS011;50072;50.678;13.938;2022-12-05T08:14:59;41.90;;;19.92;;
63902;SDS011;50072;50.678;13.938;2022-12-05T08:17:25;32.90;;;17.13;;
63902;SDS011;50072;50.678;13.938;2022-12-05T08:19:54;33.42;;;16.52;;
63902;SDS011;50072;50.678;13.938;2022-12-05T08:22:21;34.90;;;17.38;;
63902;SDS011;50072;50.678;13.938;2022-12-05T08:24:48;35.40;;;16.50;;
63902;SDS011;50072;50.678;13.938;2022-12-05T08:27:15;35.40;;;17.20;;
63902;SDS011;50072;50.678;13.938;2022-12-05T08:29:40;35.42;;;16.58;;
63902;SDS011;50072;50.678;13.938;2022-12-05T08:32:06;34.70;;;16.00;;
63902;SDS011;50072;50.678;13.938;2022-12-05T08:34:32;34.47;;;17.13;;
63902;SDS011;50072;50.678;13.938;2022-12-05T08:36:58;33.38;;;17.17;;
63902;SDS011;50072;50.678;13.938;2022-12-05T08:39:24;34.15;;;16.70;;
63902;SDS011;50072;50.678;13.938;2022-12-05T08:41:51;30.10;;;15.07;;
63902;SDS011;50072;50.678;13.938;2022-12-05T08:44:17;32.80;;;15.32;;
63902;SDS011;50072;50.678;13.938;2022-12-05T08:46:44;29.02;;;15.07;;
63902;SDS011;50072;50.678;13.938;2022-12-05T08:49:13;31.60;;;16.15;;
63902;SDS011;50072;50.678;13.938;2022-12-05T08:51:39;31.30;;;15.52;;
63902;SDS011;50072;50.678;13.938;2022-12-05T08:54:05;29.85;;;14.68;;
63902;SDS011;50072;50.678;13.938;2022-12-05T08:56:32;32.40;;;15.50;;
63902;SDS011;50072;50.678;13.938;2022-12-05T08:58:58;30.27;;;15.00;;
63902;SDS011;50072;50.678;13.938;2022-12-05T09:01:24;32.55;;;15.20;;
63902;SDS011;50072;50.678;13.938;2022-12-05T09:03:54;28.80;;;15.00;;
63902;SDS011;50072;50.678;13.938;2022-12-05T09:06:22;33.20;;;15.98;;
63902;SDS011;50072;50.678;13.938;2022-12-05T09:08:56;32.83;;;16.25;;
63902;SDS011;50072;50.678;13.938;2022-12-05T09:11:28;32.95;;;16.27;;
63902;SDS011;50072;50.678;13.938;2022-12-05T09:13:57;32.80;;;16.20;;
63902;SDS011;50072;50.678;13.938;2022-12-05T09:16:27;38.08;;;16.73;;
63902;SDS011;50072;50.678;13.938;2022-12-05T09:18:54;29.52;;;15.75;;
63902;SDS011;50072;50.678;13.938;2022-12-05T09:21:22;32.47;;;16.48;;
63902;SDS011;50072;50.678;13.938;2022-12-05T09:23:49;32.75;;;15.93;;
63902;SDS011;50072;50.678;13.938;2022-12-05T09:26:18;33.28;;;16.05;;
63902;SDS011;50072;50.678;13.938;2022-12-05T09:28:53;32.58;;;16.63;;
63902;SDS011;50072;50.678;13.938;2022-12-05T09:31:20;32.42;;;15.75;;
63902;SDS011;50072;50.678;13.938;2022-12-05T09:33:49;32.08;;;16.27;;
63902;SDS011;50072;50.678;13.938;2022-12-05T09:36:18;38.30;;;17.13;;
63902;SDS011;50072;50.678;13.938;2022-12-05T09:38:45;32.80;;;16.75;;
63902;SDS011;50072;50.678;13.938;2022-12-05T09:46:20;34.92;;;16.60;;
63902;SDS011;50072;50.678;13.938;2022-12-05T09:48:49;35.97;;;17.38;;
63902;SDS011;50072;50.678;13.938;2022-12-05T09:51:16;34.85;;;15.60;;
63902;SDS011;50072;50.678;13.938;2022-12-05T09:53:42;38.05;;;16.75;;
63902;SDS011;50072;50.678;13.938;2022-12-05T09:56:28;31.98;;;15.93;;
63902;SDS011;50072;50.678;13.938;2022-12-05T09:58:56;35.90;;;16.95;;
63902;SDS011;50072;50.678;13.938;2022-12-05T10:10:20;32.63;;;15.60;;
63902;SDS011;50072;50.678;13.938;2022-12-05T10:16:12;32.72;;;16.00;;
63902;SDS011;50072;50.678;13.938;2022-12-05T10:21:24;31.65;;;15.52;;
63902;SDS011;50072;50.678;13.938;2022-12-05T10:23:58;34.83;;;16.63;;
63902;SDS011;50072;50.678;13.938;2022-12-05T10:27:01;29.63;;;14.63;;
63902;SDS011;50072;50.678;13.938;2022-12-05T10:29:26;29.83;;;14.68;;
63902;SDS011;50072;50.678;13.938;2022-12-05T10:32:07;28.98;;;14.60;;
63902;SDS011;50072;50.678;13.938;2022-12-05T10:37:54;28.88;;;14.20;;
63902;SDS011;50072;50.678;13.938;2022-12-05T10:40:32;31.80;;;14.55;;
63902;SDS011;50072;50.678;13.938;2022-12-05T10:43:04;29.45;;;14.50;;
63902;SDS011;50072;50.678;13.938;2022-12-05T10:45:34;28.80;;;14.48;;
63902;SDS011;50072;50.678;13.938;2022-12-05T10:48:13;29.42;;;14.07;;
63902;SDS011;50072;50.678;13.938;2022-12-05T10:50:41;31.50;;;13.98;;
63902;SDS011;50072;50.678;13.938;2022-12-05T10:53:12;30.75;;;14.20;;
63902;SDS011;50072;50.678;13.938;2022-12-05T10:55:45;31.50;;;15.38;;
63902;SDS011;50072;50.678;13.938;2022-12-05T10:58:17;32.33;;;15.48;;
63902;SDS011;50072;50.678;13.938;2022-12-05T11:00:55;35.67;;;16.20;;
63902;SDS011;50072;50.678;13.938;2022-12-05T11:06:23;39.97;;;19.75;;
63902;SDS011;50072;50.678;13.938;2022-12-05T11:08:54;36.55;;;20.20;;
63902;SDS011;50072;50.678;13.938;2022-12-05T11:11:28;30.85;;;16.63;;
63902;SDS011;50072;50.678;13.938;2022-12-05T11:16:31;24.65;;;12.98;;
63902;SDS011;50072;50.678;13.938;2022-12-05T11:21:46;35.88;;;20.23;;
63902;SDS011;50072;50.678;13.938;2022-12-05T11:24:19;26.30;;;12.05;;
63902;SDS011;50072;50.678;13.938;2022-12-05T11:29:40;24.75;;;12.13;;
63902;SDS011;50072;50.678;13.938;2022-12-05T11:32:17;24.60;;;11.50;;
63902;SDS011;50072;50.678;13.938;2022-12-05T11:57:33;25.15;;;11.63;;
63902;SDS011;50072;50.678;13.938;2022-12-05T12:08:23;26.48;;;12.32;;
63902;SDS011;50072;50.678;13.938;2022-12-05T12:19:06;33.45;;;15.65;;
63902;SDS011;50072;50.678;13.938;2022-12-05T12:33:36;29.77;;;13.38;;
63902;SDS011;50072;50.678;13.938;2022-12-05T12:36:17;27.33;;;13.00;;
63902;SDS011;50072;50.678;13.938;2022-12-05T12:39:01;27.63;;;13.10;;
63902;SDS011;50072;50.678;13.938;2022-12-05T12:44:50;27.80;;;13.10;;
63902;SDS011;50072;50.678;13.938;2022-12-05T12:47:33;29.77;;;14.18;;
63902;SDS011;50072;50.678;13.938;2022-12-05T12:50:20;29.65;;;14.35;;
63902;SDS011;50072;50.678;13.938;2022-12-05T12:55:52;29.33;;;14.43;;
63902;SDS011;50072;50.678;13.938;2022-12-05T12:58:32;32.63;;;14.82;;
63902;SDS011;50072;50.678;13.938;2022-12-05T13:04:07;30.17;;;14.23;;
63902;SDS011;50072;50.678;13.938;2022-12-05T13:12:05;33.25;;;16.05;;
63902;SDS011;50072;50.678;13.938;2022-12-05T13:14:35;26.88;;;14.60;;
63902;SDS011;50072;50.678;13.938;2022-12-05T13:17:06;27.48;;;13.20;;
63902;SDS011;50072;50.678;13.938;2022-12-05T13:19:43;30.63;;;14.07;;
63902;SDS011;50072;50.678;13.938;2022-12-05T13:22:15;39.55;;;17.50;;
63902;SDS011;50072;50.678;13.938;2022-12-05T13:24:42;33.35;;;16.13;;
63902;SDS011;50072;50.678;13.938;2022-12-05T13:27:13;38.83;;;17.10;;
63902;SDS011;50072;50.678;13.938;2022-12-05T13:30:03;29.17;;;15.13;;
63902;SDS011;50072;50.678;13.938;2022-12-05T13:32:33;32.40;;;14.40;;
63902;SDS011;50072;50.678;13.938;2022-12-05T13:38:02;37.30;;;15.18;;
63902;SDS011;50072;50.678;13.938;2022-12-05T13:40:50;38.85;;;16.70;;
63902;SDS011;50072;50.678;13.938;2022-12-05T13:43:41;40.42;;;16.77;;
63902;SDS011;50072;50.678;13.938;2022-12-05T13:46:30;34.67;;;15.80;;
63902;SDS011;50072;50.678;13.938;2022-12-05T13:49:06;37.20;;;17.25;;
63902;SDS011;50072;50.678;13.938;2022-12-05T13:52:08;34.17;;;16.40;;
63902;SDS011;50072;50.678;13.938;2022-12-05T13:57:50;37.95;;;18.52;;
63902;SDS011;50072;50.678;13.938;2022-12-05T14:00:20;30.05;;;14.52;;
63902;SDS011;50072;50.678;13.938;2022-12-05T14:03:00;32.20;;;14.57;;
63902;SDS011;50072;50.678;13.938;2022-12-05T14:15:48;35.08;;;17.67;;
63902;SDS011;50072;50.678;13.938;2022-12-05T14:32:35;41.38;;;21.85;;
63902;SDS011;50072;50.678;13.938;2022-12-05T14:35:19;45.47;;;23.98;;
63902;SDS011;50072;50.678;13.938;2022-12-05T14:42:59;37.15;;;16.33;;
63902;SDS011;50072;50.678;13.938;2022-12-05T14:45:54;33.55;;;16.88;;
63902;SDS011;50072;50.678;13.938;2022-12-05T14:50:53;33.13;;;16.85;;
63902;SDS011;50072;50.678;13.938;2022-12-05T14:55:47;32.72;;;14.13;;
63902;SDS011;50072;50.678;13.938;2022-12-05T15:01:08;24.85;;;12.25;;
63902;SDS011;50072;50.678;13.938;2022-12-05T15:06:22;32.67;;;14.88;;
63902;SDS011;50072;50.678;13.938;2022-12-05T15:08:52;30.27;;;15.25;;
63902;SDS011;50072;50.678;13.938;2022-12-05T15:11:23;33.13;;;15.07;;
63902;SDS011;50072;50.678;13.938;2022-12-05T15:14:16;31.08;;;15.95;;
63902;SDS011;50072;50.678;13.938;2022-12-05T15:16:45;55.55;;;23.30;;
63902;SDS011;50072;50.678;13.938;2022-12-05T15:19:41;44.17;;;17.90;;
63902;SDS011;50072;50.678;13.938;2022-12-05T15:22:10;27.90;;;13.65;;
63902;SDS011;50072;50.678;13.938;2022-12-05T15:24:40;32.90;;;15.02;;
63902;SDS011;50072;50.678;13.938;2022-12-05T15:27:08;30.58;;;14.30;;
63902;SDS011;50072;50.678;13.938;2022-12-05T15:29:38;28.88;;;13.63;;
63902;SDS011;50072;50.678;13.938;2022-12-05T15:34:45;35.05;;;14.52;;
63902;SDS011;50072;50.678;13.938;2022-12-05T15:37:23;27.42;;;13.20;;
63902;SDS011;50072;50.678;13.938;2022-12-05T15:40:10;31.98;;;16.77;;
63902;SDS011;50072;50.678;13.938;2022-12-05T15:42:43;45.17;;;21.65;;
63902;SDS011;50072;50.678;13.938;2022-12-05T15:47:38;74.65;;;33.28;;
63902;SDS011;50072;50.678;13.938;2022-12-05T15:50:13;71.70;;;30.92;;
63902;SDS011;50072;50.678;13.938;2022-12-05T16:00:36;44.13;;;18.17;;
63902;SDS011;50072;50.678;13.938;2022-12-05T16:06:24;30.25;;;14.75;;
63902;SDS011;50072;50.678;13.938;2022-12-05T16:08:47;24.23;;;12.15;;
63902;SDS011;50072;50.678;13.938;2022-12-05T16:11:16;23.70;;;12.05;;
63902;SDS011;50072;50.678;13.938;2022-12-05T16:13:46;25.98;;;12.50;;
63902;SDS011;50072;50.678;13.938;2022-12-05T16:16:16;37.85;;;16.15;;
63902;SDS011;50072;50.678;13.938;2022-12-05T16:18:51;38.92;;;16.52;;
63902;SDS011;50072;50.678;13.938;2022-12-05T16:21:32;36.53;;;17.13;;
63902;SDS011;50072;50.678;13.938;2022-12-05T16:26:57;36.95;;;17.13;;
63902;SDS011;50072;50.678;13.938;2022-12-05T16:29:28;31.77;;;15.68;;
63902;SDS011;50072;50.678;13.938;2022-12-05T16:31:58;31.83;;;15.07;;
63902;SDS011;50072;50.678;13.938;2022-12-05T16:34:27;28.85;;;13.70;;
63902;SDS011;50072;50.678;13.938;2022-12-05T16:36:54;29.77;;;14.13;;
63902;SDS011;50072;50.678;13.938;2022-12-05T16:39:21;28.45;;;13.82;;
63902;SDS011;50072;50.678;13.938;2022-12-05T16:41:48;30.75;;;15.35;;
63902;SDS011;50072;50.678;13.938;2022-12-05T16:44:44;30.35;;;15.40;;
63902;SDS011;50072;50.678;13.938;2022-12-05T16:47:23;36.33;;;17.30;;
63902;SDS011;50072;50.678;13.938;2022-12-05T16:49:51;46.67;;;20.27;;
63902;SDS011;50072;50.678;13.938;2022-12-05T16:52:17;69.70;;;27.52;;
63902;SDS011;50072;50.678;13.938;2022-12-05T16:54:46;57.92;;;24.48;;
63902;SDS011;50072;50.678;13.938;2022-12-05T16:57:16;46.92;;;20.20;;
63902;SDS011;50072;50.678;13.938;2022-12-05T16:59:42;42.30;;;19.98;;
63902;SDS011;50072;50.678;13.938;2022-12-05T17:02:14;44.72;;;20.33;;
63902;SDS011;50072;50.678;13.938;2022-12-05T17:04:42;39.72;;;18.83;;
63902;SDS011;50072;50.678;13.938;2022-12-05T17:07:10;45.40;;;21.52;;
63902;SDS011;50072;50.678;13.938;2022-12-05T17:09:36;40.42;;;20.17;;
63902;SDS011;50072;50.678;13.938;2022-12-05T17:12:04;43.67;;;22.23;;
63902;SDS011;50072;50.678;13.938;2022-12-05T17:14:42;40.25;;;19.38;;
63902;SDS011;50072;50.678;13.938;2022-12-05T17:17:12;38.47;;;19.25;;
63902;SDS011;50072;50.678;13.938;2022-12-05T17:19:40;36.42;;;19.08;;
63902;SDS011;50072;50.678;13.938;2022-12-05T17:22:06;38.15;;;18.33;;
63902;SDS011;50072;50.678;13.938;2022-12-05T17:24:32;34.63;;;17.65;;
63902;SDS011;50072;50.678;13.938;2022-12-05T17:26:58;39.75;;;18.55;;
63902;SDS011;50072;50.678;13.938;2022-12-05T17:29:24;40.13;;;19.35;;
63902;SDS011;50072;50.678;13.938;2022-12-05T17:31:50;42.40;;;20.80;;
63902;SDS011;50072;50.678;13.938;2022-12-05T17:34:16;41.67;;;19.15;;
63902;SDS011;50072;50.678;13.938;2022-12-05T17:36:43;43.22;;;19.52;;
63902;SDS011;50072;50.678;13.938;2022-12-05T17:39:09;43.05;;;20.33;;
63902;SDS011;50072;50.678;13.938;2022-12-05T17:41:35;47.60;;;21.92;;
63902;SDS011;50072;50.678;13.938;2022-12-05T17:44:02;51.33;;;24.30;;
63902;SDS011;50072;50.678;13.938;2022-12-05T17:46:31;49.10;;;24.35;;
63902;SDS011;50072;50.678;13.938;2022-12-05T17:48:57;47.92;;;22.98;;